IXH weather

Kailashahar Airport
Tripura, India

Public forecast

Using degrees Celsius for public forecast. Weather courtesy of forecast.io.

METAR (pilot weather report)

Closest report is Lengpui Airport, 43.8 nm (81.1 km) SE. Retrieved 2019/08/25 04:30 UTC (30 minutes ago):

VELP 250430Z 00000KT 3000 BR FEW010 SCT018 BKN100 27/24 Q1007 NOSIG

TAF (pilot weather forecast)

Forecast is more than 12 hours old.

Closest forecast is Agartala Airport, 49.0 nm (90.8 km) WSW. Retrieved 2013/07/19 12:00 UTC (6 years ago):

TAF VEAT 190900Z 1912/1921 16008KT 5000 HZ SCT018 FEW030CB BKN100 TEMPO 1912/1921 3000 -TSRA SCT015 FEW025CB OVC090